Time;durP1;ratioP1;P1;durP2;ratioP2;P2;SDS_P1;SDS_P2;PMS_P1;PMS_P2;Temp;Humidity;BMP_temperature;BMP_pressure;BME280_temperature;BME280_humidity;BME280_pressure;Samples;Min_cycle;Max_cycle;Signal;HPM_P1;HPM_P2
2024/03/05 00:00:22;;;;;;;61.90;42.80;;;;;;;-146.25;100.00;52554.75;2079681;28;34043;-66
2024/03/05 00:01:24;;;;;;;60.35;42.08;;;;;;;-146.25;100.00;52506.06;2079462;28;32499;-66
2024/03/05 00:02:26;;;;;;;59.88;42.42;;;;;;;-146.25;100.00;52522.28;2086160;28;33762;-67
2024/03/05 00:03:28;;;;;;;63.78;42.08;;;;;;;-146.25;100.00;52544.59;2087945;28;32923;-67
2024/03/05 00:04:32;;;;;;;61.40;42.38;;;;;;;-146.25;100.00;52544.59;2087597;28;37386;-66
2024/03/05 00:05:33;;;;;;;63.65;42.75;;;;;;;-146.25;100.00;52526.34;2079589;28;20030;-67
2024/03/05 00:06:37;;;;;;;62.90;42.92;;;;;;;-146.25;100.00;52550.69;2079167;28;34117;-67
2024/03/05 00:07:40;;;;;;;64.20;42.58;;;;;;;-146.25;100.00;52538.53;2087796;28;32509;-67
2024/03/05 00:08:41;;;;;;;65.57;41.25;;;;;;;-146.25;100.00;52536.50;2087886;28;33997;-66
2024/03/05 00:09:43;;;;;;;61.50;42.20;;;;;;;-146.25;100.00;52560.81;2087686;28;32919;-67
2024/03/05 00:10:45;;;;;;;64.28;42.95;;;;;;;-146.25;100.00;52554.75;2087455;28;35438;-66
2024/03/05 00:11:49;;;;;;;63.60;41.95;;;;;;;-146.25;100.00;52522.28;2087936;28;34930;-66
2024/03/05 00:12:51;;;;;;;61.30;41.60;;;;;;;-146.25;100.00;52568.94;2087911;28;31156;-66
2024/03/05 00:13:53;;;;;;;63.95;41.15;;;;;;;-146.25;100.00;52526.34;2087585;28;35490;-66
2024/03/05 00:14:55;;;;;;;55.90;40.17;;;;;;;-146.25;100.00;52538.53;2088102;28;20993;-66
2024/03/05 00:15:57;;;;;;;58.67;40.63;;;;;;;-146.25;100.00;52487.81;2078801;28;36706;-67
2024/03/05 00:16:59;;;;;;;64.70;41.22;;;;;;;-146.25;100.00;52568.94;2079505;28;20898;-66
2024/03/05 00:18:04;;;;;;;60.35;42.35;;;;;;;-146.25;100.00;52518.25;2087451;28;36085;-66
2024/03/05 00:19:11;;;;;;;63.65;40.92;;;;;;;-146.25;100.00;52566.91;2087816;28;30936;-67
2024/03/05 00:20:18;;;;;;;60.50;40.05;;;;;;;-146.25;100.00;52570.97;2078833;28;33389;-67
2024/03/05 00:21:23;;;;;;;65.68;41.25;;;;;;;-146.25;100.00;52518.25;2080484;28;37161;-66
2024/03/05 00:22:24;;;;;;;62.97;40.67;;;;;;;-146.25;100.00;52516.22;2087585;28;33227;-67
2024/03/05 00:23:29;;;;;;;57.25;39.78;;;;;;;-146.25;100.00;52526.34;2087756;28;34967;-66
2024/03/05 00:24:31;;;;;;;56.83;40.38;;;;;;;-146.25;100.00;52514.19;2087777;28;34752;-66
2024/03/05 00:25:32;;;;;;;61.42;41.30;;;;;;;-146.25;100.00;52508.09;2088085;28;34580;-66
2024/03/05 00:26:35;;;;;;;57.42;40.58;;;;;;;-146.25;100.00;52548.66;2087595;28;32703;-66
2024/03/05 00:27:37;;;;;;;62.75;41.70;;;;;;;-146.25;100.00;52589.22;2088340;28;20768;-66
2024/03/05 00:28:39;;;;;;;64.70;40.97;;;;;;;-146.25;100.00;52487.81;2087447;28;34183;-66
2024/03/05 00:29:41;;;;;;;60.17;40.10;;;;;;;-146.25;100.00;52566.91;2087647;28;29770;-67
2024/03/05 00:30:45;;;;;;;59.65;40.17;;;;;;;-146.25;100.00;52560.81;2087791;28;38369;-66
2024/03/05 00:31:46;;;;;;;57.42;40.17;;;;;;;-146.25;100.00;52554.75;2088335;28;33873;-66
2024/03/05 00:32:48;;;;;;;62.17;41.20;;;;;;;-146.25;100.00;52540.53;2096064;28;32143;-67
2024/03/05 00:33:51;;;;;;;60.60;39.70;;;;;;;-146.25;100.00;52550.69;2095894;28;35872;-66
2024/03/05 00:34:52;;;;;;;65.47;41.10;;;;;;;-146.25;100.00;52595.28;2095647;28;32631;-65
2024/03/05 00:35:54;;;;;;;62.30;41.13;;;;;;;-146.25;100.00;52536.50;2095522;28;35440;-66
2024/03/05 00:36:56;;;;;;;61.13;40.63;;;;;;;-146.25;100.00;52534.47;2087179;28;36218;-67
2024/03/05 00:37:58;;;;;;;60.13;40.40;;;;;;;-146.25;100.00;52552.72;2087515;28;20052;-65
2024/03/05 00:39:00;;;;;;;60.88;41.45;;;;;;;-146.25;100.00;52550.69;2096036;28;32234;-66
2024/03/05 00:40:08;;;;;;;68.07;41.20;;;;;;;-146.25;100.00;52566.91;2096053;28;32581;-65
2024/03/05 00:41:10;;;;;;;57.28;39.63;;;;;;;-146.25;100.00;52512.16;2096189;28;34771;-66
2024/03/05 00:42:12;;;;;;;59.10;41.67;;;;;;;-146.25;100.00;52542.56;2087125;28;35454;-66
2024/03/05 00:43:14;;;;;;;59.85;41.42;;;;;;;-146.25;100.00;52538.53;2087218;28;34206;-66
2024/03/05 00:44:16;;;;;;;58.38;41.15;;;;;;;-146.25;100.00;52518.25;2096210;28;20041;-66
2024/03/05 00:45:21;;;;;;;57.63;39.58;;;;;;;-146.25;100.00;52554.75;2095653;28;37000;-66
2024/03/05 00:46:24;;;;;;;62.13;41.25;;;;;;;-146.25;100.00;52556.75;2096050;28;37180;-67
2024/03/05 00:47:27;;;;;;;58.67;39.50;;;;;;;-146.25;100.00;52526.34;2096311;28;33403;-65
2024/03/05 00:48:29;;;;;;;62.38;40.38;;;;;;;-146.25;100.00;52585.16;2095653;28;36776;-66
2024/03/05 00:49:32;;;;;;;59.13;39.65;;;;;;;-146.25;100.00;52522.28;2095549;28;20830;-66
2024/03/05 00:50:34;;;;;;;60.85;41.30;;;;;;;-146.25;100.00;52560.81;2094902;28;35538;-66
2024/03/05 00:51:36;;;;;;;61.10;40.25;;;;;;;-146.25;100.00;52512.16;2095877;28;37136;-67
2024/03/05 00:52:38;;;;;;;56.38;38.17;;;;;;;-146.25;100.00;52502.03;2096681;28;20066;-67
2024/03/05 00:53:40;;;;;;;63.13;41.50;;;;;;;-146.25;100.00;52497.97;2095560;28;34906;-67
2024/03/05 00:54:42;;;;;;;61.33;39.95;;;;;;;-146.25;100.00;52538.53;2096093;28;33446;-66
2024/03/05 00:55:44;;;;;;;58.38;39.95;;;;;;;-146.25;100.00;52556.75;2095799;28;34175;-67
2024/03/05 00:56:46;;;;;;;58.92;40.00;;;;;;;-146.25;100.00;52530.41;2095547;28;35694;-66
2024/03/05 00:57:48;;;;;;;56.92;39.88;;;;;;;-146.25;100.00;52530.41;2095819;28;33084;-67
2024/03/05 00:58:53;;;;;;;56.38;39.42;;;;;;;-146.25;100.00;52542.56;2096018;28;20179;-67
2024/03/05 00:59:55;;;;;;;64.38;40.20;;;;;;;-146.25;100.00;52542.56;2095207;28;35803;-64
2024/03/05 01:00:57;;;;;;;67.32;41.03;;;;;;;-146.25;100.00;52558.78;2095211;28;33955;-67
2024/03/05 01:01:59;;;;;;;63.47;40.30;;;;;;;-146.25;100.00;52487.81;2095814;28;33845;-67
2024/03/05 01:03:01;;;;;;;64.53;40.25;;;;;;;-146.25;100.00;52538.53;2095882;28;34072;-66
2024/03/05 01:04:04;;;;;;;61.30;40.55;;;;;;;-146.25;100.00;52542.56;2095899;28;30099;-67
2024/03/05 01:05:09;;;;;;;66.00;41.97;;;;;;;-146.25;100.00;52556.75;2095789;28;31234;-66
2024/03/05 01:06:11;;;;;;;59.78;39.67;;;;;;;-146.25;100.00;52512.16;2095342;28;30207;-66
2024/03/05 01:07:15;;;;;;;57.25;39.10;;;;;;;-146.25;100.00;52544.59;2095218;28;33922;-67
2024/03/05 01:08:19;;;;;;;57.50;40.20;;;;;;;-146.25;100.00;52528.38;2095996;28;35834;-67
2024/03/05 01:09:24;;;;;;;59.03;39.00;;;;;;;-146.25;100.00;52530.41;2088618;28;33822;-67
2024/03/05 01:10:26;;;;;;;57.40;39.90;;;;;;;-146.25;100.00;52526.34;2089481;28;33888;-67
2024/03/05 01:11:31;;;;;;;65.57;39.67;;;;;;;-146.25;100.00;52536.50;2097110;28;20041;-67
2024/03/05 01:12:33;;;;;;;58.42;40.33;;;;;;;-146.25;100.00;52497.97;2096608;28;29836;-67
2024/03/05 01:13:36;;;;;;;56.58;39.38;;;;;;;-146.25;100.00;52544.59;2087924;28;35844;-67
2024/03/05 01:14:38;;;;;;;59.00;39.00;;;;;;;-146.25;100.00;52536.50;2088622;28;33999;-67
2024/03/05 01:15:41;;;;;;;62.47;40.15;;;;;;;-146.25;100.00;52526.34;2088198;28;32408;-66
2024/03/05 01:16:42;;;;;;;62.08;40.47;;;;;;;-146.25;100.00;52548.66;2088555;28;34534;-67
2024/03/05 01:17:44;;;;;;;59.38;40.28;;;;;;;-146.25;100.00;52546.63;2096982;28;33286;-67
2024/03/05 01:18:46;;;;;;;61.42;40.58;;;;;;;-146.25;100.00;52552.72;2097304;28;34121;-66
2024/03/05 01:19:48;;;;;;;60.67;40.55;;;;;;;-146.25;100.00;52566.91;2096922;28;33929;-66
2024/03/05 01:20:50;;;;;;;59.53;39.97;;;;;;;-146.25;100.00;52558.78;2097217;28;37325;-67
2024/03/05 01:21:51;;;;;;;65.20;40.90;;;;;;;-146.25;100.00;52552.72;2097947;28;20037;-66
2024/03/05 01:22:53;;;;;;;60.33;39.55;;;;;;;-146.25;100.00;52514.19;2097196;28;37578;-67
2024/03/05 01:23:55;;;;;;;57.10;39.78;;;;;;;-146.25;100.00;52562.84;2097094;28;37007;-67
2024/03/05 01:24:57;;;;;;;61.92;40.85;;;;;;;-146.25;100.00;52532.44;2097154;28;32736;-67
2024/03/05 01:25:59;;;;;;;62.17;39.60;;;;;;;-146.25;100.00;52536.50;2097016;28;31689;-67
2024/03/05 01:27:01;;;;;;;60.00;39.45;;;;;;;-146.25;100.00;52534.47;2097354;28;20937;-67
2024/03/05 01:28:07;;;;;;;57.80;40.28;;;;;;;-146.25;100.00;52548.66;2088147;28;35938;-66
2024/03/05 01:29:12;;;;;;;58.17;38.65;;;;;;;-146.25;100.00;52516.22;2080839;28;35521;-67
2024/03/05 01:30:14;;;;;;;62.15;40.17;;;;;;;-146.25;100.00;52520.28;2089055;28;33044;-67
2024/03/05 01:31:16;;;;;;;60.13;40.38;;;;;;;-146.25;100.00;52534.47;2088228;28;34678;-66
2024/03/05 01:32:19;;;;;;;61.92;40.45;;;;;;;-146.25;100.00;52534.47;2089169;28;20042;-67
2024/03/05 01:33:21;;;;;;;59.10;40.42;;;;;;;-146.25;100.00;52526.34;2096666;28;34114;-67
2024/03/05 01:34:23;;;;;;;64.75;40.20;;;;;;;-146.25;100.00;52540.53;2096825;28;36993;-67
2024/03/05 01:35:25;;;;;;;58.25;39.70;;;;;;;-146.25;100.00;52577.03;2084697;28;20188;-67
2024/03/05 01:36:27;;;;;;;59.05;40.28;;;;;;;-146.25;100.00;52526.34;2071839;28;35590;-67
2024/03/05 01:37:28;;;;;;;63.03;41.40;;;;;;;-146.25;100.00;52542.56;2079987;28;36578;-67
2024/03/05 01:38:30;;;;;;;59.72;39.47;;;;;;;-146.25;100.00;52542.56;2088430;28;34867;-66
2024/03/05 01:39:32;;;;;;;63.90;40.75;;;;;;;-146.25;100.00;52558.78;2088651;28;37413;-66
2024/03/05 01:40:35;;;;;;;55.83;39.08;;;;;;;-146.25;100.00;52522.28;2089359;28;20041;-67
2024/03/05 01:41:38;;;;;;;57.97;39.78;;;;;;;-146.25;100.00;52530.41;2088664;28;36073;-67
2024/03/05 01:42:41;;;;;;;57.45;38.55;;;;;;;-146.25;100.00;52556.75;2088687;28;35656;-67
2024/03/05 01:43:43;;;;;;;57.15;38.35;;;;;;;-146.25;100.00;52526.34;2089258;28;20131;-66
2024/03/05 01:44:47;;;;;;;59.85;39.17;;;;;;;-146.25;100.00;52562.84;2088510;28;37037;-66
2024/03/05 01:45:51;;;;;;;57.63;38.17;;;;;;;-146.25;100.00;52534.47;2088838;28;33323;-67
2024/03/05 01:46:55;;;;;;;57.75;39.08;;;;;;;-146.25;100.00;52526.34;2087854;28;34159;-66
2024/03/05 01:47:59;;;;;;;57.20;39.17;;;;;;;-146.25;100.00;52570.97;2087953;28;34829;-67
2024/03/05 01:49:01;;;;;;;58.15;38.97;;;;;;;-146.25;100.00;52550.69;2087905;28;35733;-67
2024/03/05 01:50:03;;;;;;;65.93;40.80;;;;;;;-146.25;100.00;52568.94;2088393;28;32332;-67
2024/03/05 01:51:06;;;;;;;65.32;40.08;;;;;;;-146.25;100.00;52544.59;2088561;28;35893;-67
2024/03/05 01:52:08;;;;;;;56.20;39.38;;;;;;;-146.25;100.00;52514.19;2088785;28;32803;-67
2024/03/05 01:53:14;;;;;;;53.97;37.33;;;;;;;-146.25;100.00;52504.03;2088089;28;39190;-65
2024/03/05 01:54:17;;;;;;;59.58;38.08;;;;;;;-146.25;100.00;52558.78;2088460;28;20128;-67
2024/03/05 01:55:19;;;;;;;57.45;37.65;;;;;;;-146.25;100.00;52540.53;2079528;28;32256;-67
2024/03/05 01:56:22;;;;;;;53.70;37.42;;;;;;;-146.25;100.00;52518.25;2080738;28;20085;-67
2024/03/05 01:57:24;;;;;;;57.28;38.22;;;;;;;-146.25;100.00;52518.25;2088461;28;34617;-67
2024/03/05 01:58:26;;;;;;;56.53;38.17;;;;;;;-146.25;100.00;52512.16;2088054;28;36776;-66
2024/03/05 01:59:28;;;;;;;54.75;37.33;;;;;;;-146.25;100.00;52526.34;2088509;28;31145;-67
2024/03/05 02:00:32;;;;;;;56.72;37.55;;;;;;;-146.25;100.00;52540.53;2088721;28;34111;-66
2024/03/05 02:01:35;;;;;;;57.25;36.78;;;;;;;-146.25;100.00;52566.91;2088372;28;38058;-66
2024/03/05 02:02:37;;;;;;;54.42;36.95;;;;;;;-146.25;100.00;52536.50;2087902;28;33945;-67
2024/03/05 02:03:40;;;;;;;54.25;38.25;;;;;;;-146.25;100.00;52540.53;2079312;28;39232;-66
2024/03/05 02:04:43;;;;;;;58.97;37.08;;;;;;;-146.25;100.00;52526.34;2080721;28;20172;-67
2024/03/05 02:05:47;;;;;;;55.50;37.05;;;;;;;-146.25;100.00;52546.63;2078946;28;36527;-66
2024/03/05 02:06:51;;;;;;;53.88;37.15;;;;;;;-146.25;100.00;52556.75;2071770;28;34211;-67
2024/03/05 02:07:56;;;;;;;58.35;37.35;;;;;;;-146.25;100.00;52554.75;2071843;28;35179;-66
2024/03/05 02:09:00;;;;;;;57.22;36.42;;;;;;;-146.25;100.00;52522.28;2081503;28;20046;-66
2024/03/05 02:10:07;;;;;;;51.85;35.15;;;;;;;-146.25;100.00;52520.28;2080052;28;23959;-65
2024/03/05 02:11:11;;;;;;;52.72;34.78;;;;;;;-146.25;100.00;52581.09;2080809;28;36002;-66
2024/03/05 02:12:13;;;;;;;56.72;36.47;;;;;;;-146.25;100.00;52562.84;2088386;28;34826;-66
2024/03/05 02:13:15;;;;;;;58.45;35.30;;;;;;;-146.25;100.00;52520.28;2088555;28;30937;-66
2024/03/05 02:14:17;;;;;;;55.67;36.45;;;;;;;-146.25;100.00;52532.44;2089156;28;20042;-67
2024/03/05 02:15:19;;;;;;;53.40;35.65;;;;;;;-146.25;100.00;52530.41;2088293;28;35885;-67
2024/03/05 02:16:21;;;;;;;52.35;35.17;;;;;;;-146.25;100.00;52552.72;2080143;28;34700;-67
2024/03/05 02:17:23;;;;;;;55.33;36.00;;;;;;;-146.25;100.00;52532.44;2080264;28;20073;-66
2024/03/05 02:18:24;;;;;;;56.03;36.00;;;;;;;-146.25;100.00;52570.97;2087632;28;34979;-67
2024/03/05 02:19:26;;;;;;;50.33;32.33;;;;;;;-146.25;100.00;52583.13;2079247;28;33989;-67
2024/03/05 02:20:28;;;;;;;54.20;34.63;;;;;;;-146.25;100.00;52542.56;2078852;28;32502;-67
2024/03/05 02:21:33;;;;;;;54.45;35.35;;;;;;;-146.25;100.00;52526.34;2087647;28;37430;-67
2024/03/05 02:22:37;;;;;;;53.30;34.13;;;;;;;-146.25;100.00;52564.88;2088712;28;20168;-67
2024/03/05 02:23:40;;;;;;;57.33;35.38;;;;;;;-146.25;100.00;52508.09;2088256;28;34018;-66
2024/03/05 02:24:44;;;;;;;53.53;36.15;;;;;;;-146.25;100.00;52534.47;2087995;28;31972;-66
2024/03/05 02:25:46;;;;;;;54.63;34.90;;;;;;;-146.25;100.00;52542.56;2087781;28;33999;-67
2024/03/05 02:26:48;;;;;;;52.60;34.95;;;;;;;-146.25;100.00;52534.47;2079555;28;33451;-67
2024/03/05 02:27:52;;;;;;;48.80;33.85;;;;;;;-146.25;100.00;52522.28;2080541;28;20994;-66
2024/03/05 02:28:55;;;;;;;54.33;33.83;;;;;;;-146.25;100.00;52534.47;2079572;28;30905;-67
2024/03/05 02:29:57;;;;;;;51.67;33.65;;;;;;;-146.25;100.00;52558.78;2079824;28;37465;-66
2024/03/05 02:30:59;;;;;;;49.85;33.25;;;;;;;-146.25;100.00;52536.50;2089205;28;20171;-67
2024/03/05 02:32:01;;;;;;;46.70;32.20;;;;;;;-146.25;100.00;52550.69;2090519;28;36609;-67
2024/03/05 02:33:04;;;;;;;49.38;32.10;;;;;;;-146.25;100.00;52566.91;2096630;28;34087;-67
2024/03/05 02:34:07;;;;;;;44.22;31.33;;;;;;;-146.25;100.00;52552.72;2087612;28;35240;-67
2024/03/05 02:35:11;;;;;;;49.63;31.33;;;;;;;-146.25;100.00;52522.28;2088609;28;20897;-67
2024/03/05 02:36:13;;;;;;;44.40;28.45;;;;;;;-146.25;100.00;52552.72;2087679;28;37227;-66
2024/03/05 02:37:14;;;;;;;49.70;31.67;;;;;;;-146.25;100.00;52560.81;2088047;28;35145;-67
2024/03/05 02:38:16;;;;;;;46.00;30.17;;;;;;;-146.25;100.00;52518.25;2096092;28;37613;-67
2024/03/05 02:39:19;;;;;;;44.95;29.40;;;;;;;-146.25;100.00;52566.91;2097132;28;31654;-67
2024/03/05 02:40:25;;;;;;;47.38;30.02;;;;;;;-146.25;100.00;52556.75;2096357;28;32907;-66
2024/03/05 02:41:26;;;;;;;48.15;30.50;;;;;;;-146.25;100.00;52579.06;2096874;28;34978;-67
2024/03/05 02:42:28;;;;;;;46.50;28.13;;;;;;;-146.25;100.00;52550.69;2096477;28;37109;-67
2024/03/05 02:43:30;;;;;;;42.78;28.42;;;;;;;-146.25;100.00;52568.94;2096321;28;33308;-67
2024/03/05 02:44:32;;;;;;;40.13;27.83;;;;;;;-146.25;100.00;52536.50;2087486;28;39249;-66
2024/03/05 02:45:34;;;;;;;43.92;28.52;;;;;;;-146.25;100.00;52528.38;2087867;28;32072;-67
2024/03/05 02:46:35;;;;;;;45.33;28.15;;;;;;;-146.25;100.00;52536.50;2096303;28;35878;-67
2024/03/05 02:47:42;;;;;;;43.50;29.70;;;;;;;-146.25;100.00;52564.88;2096771;28;32222;-66
2024/03/05 02:48:44;;;;;;;42.15;28.27;;;;;;;-146.25;100.00;52536.50;2096855;28;32436;-67
2024/03/05 02:49:46;;;;;;;41.67;28.67;;;;;;;-146.25;100.00;52554.75;2096172;28;36453;-67
2024/03/05 02:50:48;;;;;;;42.33;27.75;;;;;;;-146.25;100.00;52544.59;2087341;28;29965;-67
2024/03/05 02:51:51;;;;;;;42.47;28.73;;;;;;;-146.25;100.00;52544.59;2087709;28;36379;-65
2024/03/05 02:52:53;;;;;;;46.30;28.40;;;;;;;-146.25;100.00;52530.41;2096403;28;35148;-66
2024/03/05 02:53:55;;;;;;;43.22;29.15;;;;;;;-146.25;100.00;52530.41;2096469;28;34391;-67
2024/03/05 02:54:59;;;;;;;45.38;28.00;;;;;;;-146.25;100.00;52528.38;2087839;28;29367;-67
2024/03/05 02:56:04;;;;;;;45.72;28.63;;;;;;;-146.25;100.00;52546.63;2087752;28;35267;-67
2024/03/05 02:57:07;;;;;;;43.17;29.13;;;;;;;-146.25;100.00;52540.53;2096297;28;37689;-67
2024/03/05 02:58:10;;;;;;;39.50;27.83;;;;;;;-146.25;100.00;52546.63;2087545;28;35511;-67
2024/03/05 02:59:12;;;;;;;48.22;28.15;;;;;;;-146.25;100.00;52540.53;2087852;28;37334;-65
2024/03/05 03:00:20;;;;;;;46.38;29.33;;;;;;;-146.25;100.00;52556.75;2095654;28;20041;-66
2024/03/05 03:01:24;;;;;;;40.53;28.35;;;;;;;-146.25;100.00;52575.00;2088648;28;37983;-67
2024/03/05 03:02:26;;;;;;;44.83;28.10;;;;;;;-146.25;100.00;52595.28;2093928;28;37277;-67
2024/03/05 03:03:30;;;;;;;42.55;28.50;;;;;;;-146.25;100.00;52550.69;2096555;28;35241;-67
2024/03/05 03:04:32;;;;;;;45.40;27.45;;;;;;;-146.25;100.00;52548.66;2095537;28;35158;-67
2024/03/05 03:05:34;;;;;;;44.78;27.83;;;;;;;-146.25;100.00;52583.13;2096195;28;20151;-67
2024/03/05 03:06:36;;;;;;;45.30;27.60;;;;;;;-146.25;100.00;52536.50;2096658;28;33975;-66
2024/03/05 03:07:39;;;;;;;42.05;28.67;;;;;;;-146.25;100.00;52558.78;2096555;28;31657;-66
2024/03/05 03:08:40;;;;;;;40.45;27.17;;;;;;;-146.25;100.00;52575.00;2096713;28;34653;-67
2024/03/05 03:09:46;;;;;;;50.90;28.90;;;;;;;-146.25;100.00;52570.97;2096236;28;35950;-66
2024/03/05 03:10:49;;;;;;;44.05;28.85;;;;;;;-146.25;100.00;52540.53;2094641;28;20033;-67
2024/03/05 03:11:51;;;;;;;45.58;28.73;;;;;;;-146.25;100.00;52558.78;2088297;28;35748;-67
2024/03/05 03:12:55;;;;;;;50.17;27.92;;;;;;;-146.25;100.00;52570.97;2088288;28;29642;-65
2024/03/05 03:13:57;;;;;;;50.45;28.60;;;;;;;-146.25;100.00;52544.59;2087902;28;33463;-66
2024/03/05 03:14:58;;;;;;;49.70;28.27;;;;;;;-146.25;100.00;52546.63;2088017;28;33929;-67
2024/03/05 03:16:00;;;;;;;48.60;28.10;;;;;;;-146.25;100.00;52556.75;2087444;28;35449;-67
2024/03/05 03:17:02;;;;;;;47.83;28.45;;;;;;;-146.25;100.00;52550.69;2087295;28;33011;-67
2024/03/05 03:18:05;;;;;;;46.63;28.20;;;;;;;-146.25;100.00;52516.22;2087551;28;37503;-67
2024/03/05 03:19:07;;;;;;;42.83;27.77;;;;;;;-146.25;100.00;52542.56;2087229;28;34339;-67
2024/03/05 03:20:09;;;;;;;44.75;28.63;;;;;;;-146.25;100.00;52554.75;2087645;28;35618;-67
2024/03/05 03:21:11;;;;;;;43.35;27.38;;;;;;;-146.25;100.00;52603.41;2087225;28;35377;-66
2024/03/05 03:22:13;;;;;;;46.40;27.73;;;;;;;-146.25;100.00;52550.69;2087205;28;33866;-67
2024/03/05 03:23:15;;;;;;;43.38;27.27;;;;;;;-146.25;100.00;52534.47;2087518;28;32238;-66
2024/03/05 03:24:17;;;;;;;43.83;26.85;;;;;;;-146.25;100.00;52546.63;2087520;28;34586;-67
2024/03/05 03:25:19;;;;;;;42.72;27.15;;;;;;;-146.25;100.00;52566.91;2087329;28;33244;-66
2024/03/05 03:26:22;;;;;;;43.45;26.30;;;;;;;-146.25;100.00;52558.78;2087392;28;34644;-67
2024/03/05 03:27:26;;;;;;;40.03;25.17;;;;;;;-146.25;100.00;52564.88;2087481;28;33583;-67
2024/03/05 03:28:29;;;;;;;39.92;26.23;;;;;;;-146.25;100.00;52546.63;2087276;28;35991;-67
2024/03/05 03:29:31;;;;;;;42.53;27.50;;;;;;;-146.25;100.00;52577.03;2087420;28;32160;-67
2024/03/05 03:30:33;;;;;;;44.78;28.17;;;;;;;-146.25;100.00;52542.56;2086803;28;36990;-67
2024/03/05 03:31:34;;;;;;;40.78;25.42;;;;;;;-146.25;100.00;52575.00;2086687;28;33754;-67
2024/03/05 03:32:36;;;;;;;39.80;25.38;;;;;;;-146.25;100.00;52556.75;2094912;28;34841;-67
2024/03/05 03:33:39;;;;;;;42.08;25.98;;;;;;;-146.25;100.00;52577.03;2095674;28;37127;-66
2024/03/05 03:34:41;;;;;;;41.03;26.58;;;;;;;-146.25;100.00;52556.75;2096138;28;20069;-67
2024/03/05 03:35:43;;;;;;;50.55;26.15;;;;;;;-146.25;100.00;52562.84;2095222;28;38077;-67
2024/03/05 03:36:47;;;;;;;48.80;27.90;;;;;;;-146.25;100.00;52581.09;2086424;28;33890;-67
2024/03/05 03:37:49;;;;;;;45.72;25.63;;;;;;;-146.25;100.00;52546.63;2086947;28;34920;-67
2024/03/05 03:38:51;;;;;;;45.90;25.52;;;;;;;-146.25;100.00;52566.91;2095191;28;35070;-66
2024/03/05 03:39:53;;;;;;;48.50;26.65;;;;;;;-146.25;100.00;52542.56;2095367;28;33928;-66
2024/03/05 03:40:59;;;;;;;54.83;27.63;;;;;;;-146.25;100.00;52542.56;2086606;28;31267;-67
2024/03/05 03:42:01;;;;;;;54.58;26.80;;;;;;;-146.25;100.00;52554.75;2087460;28;38042;-66
2024/03/05 03:43:03;;;;;;;58.00;27.92;;;;;;;-146.25;100.00;52556.75;2087528;28;20037;-67
2024/03/05 03:44:08;;;;;;;51.65;26.88;;;;;;;-146.25;100.00;52581.09;2086841;28;36062;-67
2024/03/05 03:45:13;;;;;;;52.33;26.80;;;;;;;-146.25;100.00;52548.66;2095263;28;37865;-67
2024/03/05 03:46:15;;;;;;;59.25;28.20;;;;;;;-146.25;100.00;52540.53;2095892;28;32478;-65
2024/03/05 03:47:17;;;;;;;60.58;26.83;;;;;;;-146.25;100.00;52564.88;2095412;28;35890;-66
2024/03/05 03:48:18;;;;;;;55.33;26.60;;;;;;;-146.25;100.00;52548.66;2096338;28;20088;-66
2024/03/05 03:49:26;;;;;;;58.42;28.17;;;;;;;-146.25;100.00;52504.03;2095488;28;33435;-66
2024/03/05 03:50:28;;;;;;;63.10;29.15;;;;;;;-146.25;100.00;52566.91;2095465;28;35457;-67
2024/03/05 03:51:30;;;;;;;59.58;27.35;;;;;;;-146.25;100.00;52552.72;2095786;28;34343;-67
2024/03/05 03:52:32;;;;;;;58.85;26.33;;;;;;;-146.25;100.00;52570.97;2095357;28;36753;-67
2024/03/05 03:53:36;;;;;;;62.47;27.92;;;;;;;-146.25;100.00;52542.56;2095379;28;36177;-67
2024/03/05 03:54:38;;;;;;;57.83;28.00;;;;;;;-146.25;100.00;52556.75;2086802;28;34771;-66
2024/03/05 03:55:40;;;;;;;61.90;26.50;;;;;;;-146.25;100.00;52526.34;2086705;28;34814;-67
2024/03/05 03:56:42;;;;;;;64.93;29.25;;;;;;;-146.25;100.00;52573.00;2096052;28;21925;-67
2024/03/05 03:57:45;;;;;;;65.43;26.23;;;;;;;-146.25;100.00;52536.50;2095588;28;34910;-67
2024/03/05 03:58:47;;;;;;;59.90;27.38;;;;;;;-146.25;100.00;52554.75;2095652;28;34924;-67
2024/03/05 03:59:49;;;;;;;62.25;27.88;;;;;;;-146.25;100.00;52552.72;2095630;28;38181;-67
2024/03/05 04:00:50;;;;;;;61.88;28.25;;;;;;;-146.25;100.00;52595.28;2095514;28;34429;-66
2024/03/05 04:01:52;;;;;;;63.83;29.20;;;;;;;-146.25;100.00;52570.97;2094793;28;35820;-66
2024/03/05 04:02:54;;;;;;;69.13;29.67;;;;;;;-146.25;100.00;52554.75;2094817;28;38079;-66
2024/03/05 04:03:56;;;;;;;74.32;29.33;;;;;;;-146.25;100.00;52597.31;2095282;28;35137;-66
2024/03/05 04:04:58;;;;;;;70.18;30.15;;;;;;;-146.25;100.00;52540.53;2095510;28;35256;-67
2024/03/05 04:06:00;;;;;;;66.43;30.35;;;;;;;-146.25;100.00;52558.78;2095365;28;34506;-67
2024/03/05 04:07:02;;;;;;;67.53;29.00;;;;;;;-146.25;100.00;52546.63;2094715;28;34732;-66
2024/03/05 04:08:05;;;;;;;65.22;29.77;;;;;;;-146.25;100.00;52552.72;2095294;28;34214;-66
2024/03/05 04:09:13;;;;;;;67.18;29.85;;;;;;;-146.25;100.00;52550.69;2096299;28;20921;-66
2024/03/05 04:10:15;;;;;;;60.03;28.70;;;;;;;-146.25;100.00;52599.34;2095557;28;33890;-67
2024/03/05 04:11:17;;;;;;;67.18;29.02;;;;;;;-146.25;100.00;52564.88;2095321;28;37063;-66
2024/03/05 04:12:21;;;;;;;56.40;27.05;;;;;;;-146.25;100.00;52575.00;2095303;28;20042;-67
2024/03/05 04:13:23;;;;;;;54.65;26.95;;;;;;;-146.25;100.00;52548.66;2086377;28;37554;-67
2024/03/05 04:14:25;;;;;;;57.90;28.20;;;;;;;-146.25;100.00;52530.41;2087395;28;20111;-66
2024/03/05 04:15:27;;;;;;;55.95;26.92;;;;;;;-146.25;100.00;52546.63;2095589;28;35110;-67
2024/03/05 04:16:32;;;;;;;57.40;28.65;;;;;;;-146.25;100.00;52583.13;2095961;28;20840;-66
2024/03/05 04:17:37;;;;;;;61.90;26.85;;;;;;;-146.25;100.00;52558.78;2056677;28;1109245;-66
2024/03/05 04:18:39;;;;;;;52.45;27.15;;;;;;;-146.25;100.00;52546.63;2096959;28;20913;-67
2024/03/05 04:19:42;;;;;;;53.03;26.65;;;;;;;-146.25;100.00;52558.78;2096174;28;32319;-66
2024/03/05 04:20:44;;;;;;;53.40;27.10;;;;;;;-146.25;100.00;52575.00;2096130;28;20175;-66
2024/03/05 04:21:46;;;;;;;59.13;27.77;;;;;;;-146.25;100.00;52558.78;2095737;28;35478;-66
2024/03/05 04:22:48;;;;;;;51.35;26.70;;;;;;;-146.25;100.00;52550.69;2095392;28;35435;-66
2024/03/05 04:23:53;;;;;;;50.30;26.23;;;;;;;-146.25;100.00;52562.84;2095768;28;28196;-67
2024/03/05 04:24:57;;;;;;;50.10;26.38;;;;;;;-146.25;100.00;52550.69;2095803;28;32668;-67
2024/03/05 04:26:07;;;;;;;51.58;27.17;;;;;;;-146.25;100.00;52548.66;2096426;28;20163;-67
2024/03/05 04:27:11;;;;;;;51.13;26.13;;;;;;;-146.25;100.00;52554.75;2096111;28;35321;-67
2024/03/05 04:28:14;;;;;;;54.58;25.73;;;;;;;-146.25;100.00;52532.44;2096735;28;20045;-67
2024/03/05 04:29:16;;;;;;;62.05;26.90;;;;;;;-146.25;100.00;52573.00;2086794;28;34614;-66
2024/03/05 04:30:19;;;;;;;51.30;24.88;;;;;;;-146.25;100.00;52560.81;2087966;28;33550;-67
2024/03/05 04:31:30;;;;;;;53.70;26.10;;;;;;;-146.25;100.00;52566.91;2095997;28;29900;-66
2024/03/05 04:32:34;;;;;;;48.28;25.23;;;;;;;-146.25;100.00;52528.38;2087963;28;20970;-67
2024/03/05 04:33:38;;;;;;;48.70;25.55;;;;;;;-146.25;100.00;52589.22;2088680;28;34407;-67
2024/03/05 04:34:42;;;;;;;56.15;25.80;;;;;;;-146.25;100.00;52568.94;2095537;28;36534;-67
2024/03/05 04:35:44;;;;;;;49.13;25.15;;;;;;;-146.25;100.00;52542.56;2095599;28;36497;-66
2024/03/05 04:36:51;;;;;;;59.30;27.00;;;;;;;-146.25;100.00;52538.53;2095779;28;33094;-67
2024/03/05 04:37:55;;;;;;;56.92;25.42;;;;;;;-146.25;100.00;52595.28;2096039;28;34707;-66
2024/03/05 04:38:57;;;;;;;58.10;26.77;;;;;;;-146.25;100.00;52556.75;2095984;28;33511;-67